createdAt,value
2023-03-20T00:02:24.461Z,165.3
2023-03-20T00:12:24.611Z,165.3
2023-03-20T00:22:25.727Z,165.3
2023-03-20T00:32:25.530Z,165.3
2023-03-20T00:42:27.176Z,165.3
2023-03-20T00:52:27.185Z,33.1
2023-03-20T01:02:27.913Z,33.1
2023-03-20T01:12:28.749Z,33.1
2023-03-20T01:22:28.733Z,33.1
2023-03-20T01:32:28.641Z,33.1
2023-03-20T01:42:29.758Z,33.1
2023-03-20T01:52:30.816Z,33.1
2023-03-20T02:02:31.083Z,33.1
2023-03-20T02:12:31.413Z,33.1
2023-03-20T02:22:31.975Z,33.1
2023-03-20T02:32:32.279Z,33.1
2023-03-20T02:42:33.841Z,33.1
2023-03-20T02:52:33.212Z,33.1
2023-03-20T03:02:07.906Z,0
2023-03-20T03:12:09.825Z,0
2023-03-20T03:22:09.672Z,0
2023-03-20T03:32:09.448Z,0
2023-03-20T03:42:09.675Z,0
2023-03-20T03:52:09.552Z,0
2023-03-20T04:02:11.532Z,0
2023-03-20T04:12:12.936Z,0
2023-03-20T04:22:14.368Z,0
2023-03-20T04:32:15.553Z,0
2023-03-20T04:42:17.647Z,0
2023-03-20T04:52:19.805Z,0
2023-03-20T05:02:21.022Z,0
2023-03-20T05:12:21.257Z,0
2023-03-20T05:22:21.674Z,0
2023-03-20T05:32:28.153Z,0
2023-03-20T05:42:40.980Z,0
2023-03-20T05:52:55.613Z,0
2023-03-20T06:03:09.084Z,0
2023-03-20T06:13:23.157Z,0
2023-03-20T06:23:38.773Z,0
2023-03-20T06:33:52.713Z,0
2023-03-20T06:44:06.303Z,0
2023-03-20T06:54:21.280Z,0
2023-03-20T07:04:36.661Z,0
2023-03-20T07:14:51.842Z,0
2023-03-20T07:25:06.880Z,0
2023-03-20T07:35:22.383Z,0
2023-03-20T07:45:39.109Z,0
2023-03-20T07:55:57.564Z,0
2023-03-20T08:06:12.851Z,0
2023-03-20T08:16:27.684Z,0
2023-03-20T08:26:41.952Z,0
2023-03-20T08:36:57.188Z,0
2023-03-20T08:47:12.300Z,0
2023-03-20T08:57:30.016Z,99.8
2023-03-20T09:02:12.583Z,0
2023-03-20T09:12:32.845Z,101.1
2023-03-20T09:22:52.957Z,104.2
2023-03-20T09:33:13.200Z,108.3
2023-03-20T09:43:31.673Z,108.1
2023-03-20T09:53:52.274Z,113.2
2023-03-20T10:04:05.838Z,113.2
2023-03-20T10:14:25.841Z,117
2023-03-20T10:24:46.927Z,117
2023-03-20T10:35:08.105Z,120.8
2023-03-20T10:45:29.768Z,121.9
2023-03-20T10:55:48.023Z,125.9
2023-03-20T11:06:09.920Z,124.4
2023-03-20T11:16:27.743Z,125.6
2023-03-20T11:26:46.708Z,125.9
2023-03-20T11:37:12.240Z,127.9
2023-03-20T11:47:22.941Z,127.9
2023-03-20T11:57:37.544Z,127.9
2023-03-20T12:07:51.558Z,127.9
2023-03-20T12:18:02.843Z,127.9
2023-03-20T12:28:11.007Z,127.9
2023-03-20T12:38:18.130Z,127.9
2023-03-20T12:48:23.290Z,127.9
2023-03-20T12:58:28.202Z,127.9
2023-03-20T13:08:32.588Z,127.9
2023-03-20T13:18:37.319Z,127.9
2023-03-20T13:28:41.514Z,127.9
2023-03-20T13:38:46.127Z,127.9
2023-03-20T13:48:50.606Z,127.9
2023-03-20T13:58:55.056Z,127.9
2023-03-20T14:09:00.256Z,126.1
2023-03-20T14:19:04.026Z,122.4
2023-03-20T14:29:07.217Z,122.1
2023-03-20T14:39:07.709Z,122.1
2023-03-20T14:49:10.985Z,115.8
2023-03-20T14:59:14.156Z,114.1
2023-03-20T15:02:09.213Z,112.1
2023-03-20T15:12:12.222Z,112.1
2023-03-20T15:22:13.575Z,112.1
2023-03-20T15:32:16.053Z,106.6
2023-03-20T15:42:19.157Z,96.1
2023-03-20T15:52:22.143Z,96.1
2023-03-20T16:02:20.847Z,96.1
2023-03-20T16:12:22.012Z,96.1
2023-03-20T16:22:22.697Z,96.1
2023-03-20T16:32:23.894Z,96.1
2023-03-20T16:42:26.186Z,96.1
2023-03-20T16:52:28.578Z,96.1
2023-03-20T17:02:31.036Z,96.1
2023-03-20T17:12:32.374Z,96.1
2023-03-20T17:22:34.188Z,96.1
2023-03-20T17:32:35.775Z,96.1
2023-03-20T17:42:36.624Z,96.1
2023-03-20T17:52:38.424Z,96.1
2023-03-20T18:02:40.225Z,96.1
2023-03-20T18:12:41.460Z,96.1
2023-03-20T18:22:42.198Z,96.1
2023-03-20T18:32:42.917Z,96.1
2023-03-20T18:42:44.696Z,96.1
2023-03-20T18:52:44.498Z,96.1
2023-03-20T19:02:45.221Z,96.1
2023-03-20T19:12:47.261Z,96.1
2023-03-20T19:22:47.647Z,96.1
2023-03-20T19:32:47.572Z,96.1
2023-03-20T19:43:01.346Z,96.1
2023-03-20T19:52:47.498Z,96.1
2023-03-20T20:02:49.068Z,96.1
2023-03-20T20:12:49.873Z,96.1
2023-03-20T20:22:50.323Z,96.1
2023-03-20T20:32:50.822Z,96.1
2023-03-20T20:42:51.447Z,96.1
2023-03-20T20:52:51.354Z,96.1
2023-03-20T21:02:06.538Z,0
2023-03-20T21:12:08.149Z,0
2023-03-20T21:22:07.371Z,0
2023-03-20T21:32:07.269Z,0
2023-03-20T21:42:13.351Z,0
2023-03-20T21:53:06.705Z,564.2
2023-03-20T22:03:42.017Z,564.2
2023-03-20T22:14:33.385Z,564.2
2023-03-20T22:44:58.829Z,564.2
2023-03-20T22:54:25.957Z,564.2
2023-03-20T23:04:25.725Z,564.2
2023-03-20T23:14:28.323Z,564.2
2023-03-20T23:24:26.105Z,564.2
2023-03-20T23:34:26.257Z,564.2
2023-03-20T23:44:26.775Z,564.2
2023-03-20T23:54:26.312Z,564.2
